createdAt,value
2023-01-09T00:01:29.505Z,6.10
2023-01-09T00:06:31.598Z,5.50
2023-01-09T00:11:34.015Z,7.37
2023-01-09T00:16:37.499Z,7.73
2023-01-09T00:21:39.749Z,6.00
2023-01-09T00:26:41.820Z,14.47
2023-01-09T00:31:45.304Z,6.40
2023-01-09T00:36:47.513Z,6.70
2023-01-09T00:41:54.156Z,6.23
2023-01-09T00:47:00.583Z,6.77
2023-01-09T00:52:04.577Z,6.40
2023-01-09T00:57:07.147Z,7.50
2023-01-09T01:02:11.025Z,10.07
2023-01-09T01:07:13.489Z,6.87
2023-01-09T01:12:15.772Z,9.00
2023-01-09T01:17:19.408Z,10.63
2023-01-09T01:22:21.456Z,7.60
2023-01-09T01:27:23.828Z,7.90
2023-01-09T01:32:27.370Z,6.27
2023-01-09T01:37:29.697Z,8.83
2023-01-09T01:42:32.779Z,11.47
2023-01-09T01:47:49.284Z,6.73
2023-01-09T01:52:57.002Z,9.50
2023-01-09T01:58:03.050Z,8.40
2023-01-09T02:03:07.370Z,6.97
2023-01-09T02:08:09.769Z,8.93
2023-01-09T02:13:13.517Z,8.27
2023-01-09T02:18:44.091Z,8.70
2023-01-09T02:24:07.972Z,8.30
2023-01-09T02:29:45.517Z,8.43
2023-01-09T02:34:56.841Z,9.00
2023-01-09T02:40:09.405Z,7.93
2023-01-09T02:45:11.500Z,9.40
2023-01-09T02:50:21.524Z,8.00
2023-01-09T02:55:37.033Z,12.47
2023-01-09T03:00:51.185Z,12.03
2023-01-09T03:05:58.564Z,10.13
2023-01-09T03:11:02.928Z,9.43
2023-01-09T03:16:08.264Z,9.80
2023-01-09T03:21:11.888Z,9.53
2023-01-09T03:26:14.160Z,10.80
2023-01-09T03:31:16.401Z,9.97
2023-01-09T03:36:21.499Z,9.37
2023-01-09T03:41:23.647Z,6.93
2023-01-09T03:46:25.621Z,12.80
2023-01-09T03:51:28.684Z,10.70
2023-01-09T03:56:30.962Z,9.40
2023-01-09T04:01:33.516Z,10.87
2023-01-09T04:06:37.355Z,10.00
2023-01-09T04:11:39.602Z,10.70
2023-01-09T04:16:41.641Z,10.07
2023-01-09T04:21:45.305Z,13.47
2023-01-09T04:26:47.585Z,13.33
2023-01-09T04:31:49.749Z,14.07
2023-01-09T04:36:53.339Z,13.77
2023-01-09T04:41:55.443Z,14.60
2023-01-09T04:46:58.524Z,12.30
2023-01-09T04:52:02.016Z,12.60
2023-01-09T04:57:04.492Z,16.63
2023-01-09T05:02:07.076Z,14.57
2023-01-09T05:07:10.187Z,15.33
2023-01-09T05:12:12.038Z,16.07
2023-01-09T05:17:13.784Z,16.37
2023-01-09T05:22:17.341Z,13.40
2023-01-09T05:27:19.397Z,13.73
2023-01-09T05:32:21.458Z,15.80
2023-01-09T05:37:24.585Z,12.20
2023-01-09T05:42:26.325Z,16.37
2023-01-09T05:47:28.448Z,13.90
2023-01-09T05:52:31.695Z,14.37
2023-01-09T05:57:34.246Z,13.43
2023-01-09T06:02:37.004Z,16.23
2023-01-09T06:07:40.789Z,16.27
2023-01-09T06:12:47.858Z,17.07
2023-01-09T06:17:49.633Z,15.73
2023-01-09T06:22:53.009Z,17.00
2023-01-09T06:27:55.198Z,13.47
2023-01-09T06:32:57.077Z,13.60
2023-01-09T06:38:00.691Z,17.17
2023-01-09T06:43:02.968Z,16.90
2023-01-09T06:48:05.472Z,15.67
2023-01-09T06:53:08.975Z,16.17
2023-01-09T06:58:11.130Z,19.57
2023-01-09T07:03:12.889Z,17.60
2023-01-09T07:08:16.689Z,17.27
2023-01-09T07:13:18.364Z,17.83
2023-01-09T07:18:20.861Z,19.20
2023-01-09T07:23:24.662Z,15.73
2023-01-09T07:28:26.928Z,19.33
2023-01-09T07:33:28.727Z,20.70
2023-01-09T07:38:32.295Z,22.67
2023-01-09T07:43:34.490Z,22.43
2023-01-09T07:48:36.629Z,14.63
2023-01-09T07:53:40.379Z,18.37
2023-01-09T07:58:42.777Z,13.57
2023-01-09T08:03:44.470Z,17.60
2023-01-09T08:08:47.539Z,16.20
2023-01-09T08:13:50.035Z,15.57
2023-01-09T08:18:51.782Z,23.57
2023-01-09T08:23:55.204Z,15.90
2023-01-09T08:28:58.333Z,16.70
2023-01-09T08:34:00.401Z,20.00
2023-01-09T08:39:04.071Z,19.50
2023-01-09T08:44:06.656Z,21.07
2023-01-09T08:49:08.750Z,16.47
2023-01-09T08:54:12.667Z,19.97
2023-01-09T08:59:16.626Z,20.63
2023-01-09T09:04:18.762Z,18.63
2023-01-09T09:09:22.105Z,16.60
2023-01-09T09:14:25.611Z,20.67
2023-01-09T09:19:27.912Z,18.97
2023-01-09T09:24:31.658Z,16.77
2023-01-09T09:29:33.685Z,19.30
2023-01-09T09:34:35.793Z,15.77
2023-01-09T09:39:39.476Z,19.17
2023-01-09T09:44:57.861Z,17.00
2023-01-09T09:50:12.130Z,16.17
2023-01-09T09:55:19.648Z,16.27
2023-01-09T10:00:23.813Z,11.93
2023-01-09T10:05:29.783Z,16.53
2023-01-09T10:10:37.625Z,13.63
2023-01-09T10:15:46.753Z,16.03
2023-01-09T10:20:55.097Z,11.43
2023-01-09T10:26:04.684Z,11.07
2023-01-09T10:31:15.900Z,7.97
2023-01-09T10:36:35.367Z,8.73
2023-01-09T10:41:44.475Z,9.57
2023-01-09T10:46:53.461Z,7.10
2023-01-09T10:52:11.014Z,8.57
2023-01-09T10:57:30.023Z,5.03
2023-01-09T11:02:35.337Z,5.40
2023-01-09T11:07:41.979Z,3.97
2023-01-09T11:12:45.373Z,4.33
2023-01-09T11:17:48.299Z,5.70
2023-01-09T11:22:52.056Z,3.87
2023-01-09T11:28:07.003Z,4.30
2023-01-09T11:33:14.982Z,3.70
2023-01-09T11:38:18.263Z,3.03
2023-01-09T11:43:27.964Z,2.63
2023-01-09T11:48:34.063Z,2.87
2023-01-09T11:53:49.041Z,2.43
2023-01-09T11:58:53.017Z,2.80
2023-01-09T12:04:11.001Z,2.83
2023-01-09T12:09:19.640Z,3.53
2023-01-09T12:14:36.396Z,2.40
2023-01-09T12:20:05.928Z,2.63
2023-01-09T12:25:25.178Z,2.00
2023-01-09T12:30:41.198Z,2.00
2023-01-09T12:35:46.853Z,4.97
2023-01-09T12:41:10.444Z,1.27
2023-01-09T12:46:18.215Z,1.30
2023-01-09T12:51:31.871Z,1.00
2023-01-09T12:56:38.122Z,1.57
2023-01-09T13:01:46.731Z,0.80
2023-01-09T13:06:54.738Z,2.33
2023-01-09T13:12:03.254Z,2.37
2023-01-09T13:17:13.133Z,3.20
2023-01-09T13:22:16.992Z,0.87
2023-01-09T13:27:21.715Z,2.70
2023-01-09T13:32:39.645Z,2.80
2023-01-09T13:37:43.091Z,1.53
2023-01-09T13:42:45.550Z,1.30
2023-01-09T13:48:25.469Z,1.23
2023-01-09T13:53:45.869Z,0.80
2023-01-09T13:59:01.947Z,1.80
2023-01-09T14:04:36.793Z,1.43
2023-01-09T14:09:47.529Z,2.20
2023-01-09T14:14:51.747Z,2.47
2023-01-09T14:19:58.190Z,1.43
2023-01-09T14:25:08.601Z,1.40
2023-01-09T14:30:28.516Z,2.10
2023-01-09T14:35:48.550Z,1.23
2023-01-09T14:40:55.626Z,1.37
2023-01-09T14:46:04.781Z,4.43
2023-01-09T14:51:16.118Z,3.10
2023-01-09T14:56:27.759Z,1.03
2023-01-09T15:01:30.672Z,2.73
2023-01-09T15:06:38.095Z,2.03
2023-01-09T15:11:40.604Z,1.73
2023-01-09T15:16:45.220Z,0.80
2023-01-09T15:21:59.637Z,1.43
2023-01-09T15:27:05.026Z,9.83
2023-01-09T15:32:10.327Z,36.57
2023-01-09T15:37:25.287Z,13.93
2023-01-09T15:42:29.920Z,2.40
2023-01-09T15:47:32.619Z,0.70
2023-01-09T15:52:36.233Z,0.97
2023-01-09T15:57:38.394Z,0.80
2023-01-09T16:02:45.320Z,2.47
2023-01-09T16:07:51.147Z,1.97
2023-01-09T16:12:54.186Z,1.03
2023-01-09T16:18:06.981Z,1.50
2023-01-09T16:23:21.841Z,0.40
2023-01-09T16:28:25.616Z,2.53
2023-01-09T16:33:29.801Z,1.03
2023-01-09T16:38:33.413Z,0.77
2023-01-09T16:43:35.528Z,0.90
2023-01-09T16:48:38.806Z,0.80
2023-01-09T16:53:42.189Z,0.70
2023-01-09T16:58:44.689Z,2.27
2023-01-09T17:03:47.326Z,1.90
2023-01-09T17:08:50.927Z,0.87
2023-01-09T17:13:53.267Z,2.90
2023-01-09T17:18:55.359Z,2.83
2023-01-09T17:23:59.342Z,3.13
2023-01-09T17:29:02.155Z,3.03
2023-01-09T17:34:04.306Z,1.63
2023-01-09T17:39:07.775Z,1.20
2023-01-09T17:44:10.695Z,2.83
2023-01-09T17:49:16.997Z,2.57
2023-01-09T17:54:21.318Z,2.53
2023-01-09T17:59:23.499Z,3.60
2023-01-09T18:04:25.725Z,0.70
2023-01-09T18:09:29.110Z,2.47
2023-01-09T18:14:31.776Z,1.97
2023-01-09T18:19:33.793Z,2.53
2023-01-09T18:24:37.368Z,1.37
2023-01-09T18:29:39.383Z,0.70
2023-01-09T18:34:41.599Z,2.03
2023-01-09T18:39:45.033Z,0.67
2023-01-09T18:44:46.725Z,0.87
2023-01-09T18:49:48.661Z,2.77
2023-01-09T18:54:51.852Z,2.43
2023-01-09T18:59:53.626Z,0.73
2023-01-09T19:04:55.671Z,0.60
2023-01-09T19:09:59.223Z,0.50
2023-01-09T19:15:01.227Z,1.70
2023-01-09T19:20:03.374Z,1.53
2023-01-09T19:25:07.322Z,0.90
2023-01-09T19:30:10.316Z,0.93
2023-01-09T19:35:12.863Z,0.90
2023-01-09T19:40:16.967Z,0.83
2023-01-09T19:45:18.977Z,1.40
2023-01-09T19:50:21.256Z,0.70
2023-01-09T19:55:25.418Z,3.53
2023-01-09T20:00:27.269Z,3.37
2023-01-09T20:05:29.013Z,0.83
2023-01-09T20:10:33.319Z,0.73
2023-01-09T20:15:38.019Z,1.10
2023-01-09T20:25:44.151Z,1.13
2023-01-09T20:30:48.467Z,1.57
2023-01-09T20:35:50.671Z,1.33
2023-01-09T20:40:53.753Z,1.93
2023-01-09T20:45:56.085Z,1.03
2023-01-09T20:51:04.082Z,1.67
2023-01-09T20:56:08.693Z,1.97
2023-01-09T21:01:13.482Z,5.83
2023-01-09T21:06:16.428Z,1.53
2023-01-09T21:11:20.781Z,1.07
2023-01-09T21:16:23.074Z,1.23
2023-01-09T21:21:27.055Z,1.87
2023-01-09T21:26:30.781Z,1.33
2023-01-09T21:31:32.804Z,1.70
2023-01-09T21:36:35.793Z,1.50
2023-01-09T21:41:39.543Z,4.27
2023-01-09T21:46:41.322Z,0.70
2023-01-09T21:51:44.633Z,1.43
2023-01-09T21:56:48.108Z,2.60
2023-01-09T22:01:50.597Z,3.07
2023-01-09T22:06:52.771Z,0.90
2023-01-09T22:11:55.981Z,2.30
2023-01-09T22:16:58.532Z,1.27
2023-01-09T22:22:00.631Z,1.23
2023-01-09T22:27:04.189Z,1.67
2023-01-09T22:32:06.156Z,1.20
2023-01-09T22:37:08.364Z,1.33
2023-01-09T22:42:11.975Z,2.23
2023-01-09T22:47:13.835Z,1.67
2023-01-09T22:52:16.024Z,0.90
2023-01-09T22:57:19.352Z,1.47
2023-01-09T23:02:21.769Z,1.93
2023-01-09T23:07:24.339Z,2.57
2023-01-09T23:12:27.941Z,1.57
2023-01-09T23:17:30.222Z,1.20
2023-01-09T23:22:31.911Z,1.33
2023-01-09T23:27:35.619Z,1.87
2023-01-09T23:32:37.519Z,4.83
2023-01-09T23:37:39.515Z,1.30
2023-01-09T23:42:43.036Z,1.70
2023-01-09T23:47:45.217Z,2.57
2023-01-09T23:52:46.947Z,2.60
2023-01-09T23:57:51.656Z,2.33
